sensor_id;sensor_type;location;lat;lon;timestamp;P1;durP1;ratioP1;P2;durP2;ratioP2
50789;SDS011;37287;47.554;7.844;2024-01-30T00:02:02;11.73;;;8.50;;
50789;SDS011;37287;47.554;7.844;2024-01-30T00:04:29;11.65;;;9.10;;
50789;SDS011;37287;47.554;7.844;2024-01-30T00:06:56;14.23;;;9.20;;
50789;SDS011;37287;47.554;7.844;2024-01-30T00:09:23;14.32;;;8.50;;
50789;SDS011;37287;47.554;7.844;2024-01-30T00:11:50;12.52;;;8.43;;
50789;SDS011;37287;47.554;7.844;2024-01-30T00:14:17;13.27;;;9.88;;
50789;SDS011;37287;47.554;7.844;2024-01-30T00:16:44;14.05;;;9.95;;
50789;SDS011;37287;47.554;7.844;2024-01-30T00:19:11;14.23;;;10.48;;
50789;SDS011;37287;47.554;7.844;2024-01-30T00:21:38;18.20;;;12.60;;
50789;SDS011;37287;47.554;7.844;2024-01-30T00:24:05;17.20;;;12.23;;
50789;SDS011;37287;47.554;7.844;2024-01-30T00:26:32;16.65;;;11.50;;
50789;SDS011;37287;47.554;7.844;2024-01-30T00:28:59;14.80;;;10.77;;
50789;SDS011;37287;47.554;7.844;2024-01-30T00:31:25;14.45;;;9.88;;
50789;SDS011;37287;47.554;7.844;2024-01-30T00:33:52;12.23;;;9.60;;
50789;SDS011;37287;47.554;7.844;2024-01-30T00:36:19;13.10;;;10.10;;
50789;SDS011;37287;47.554;7.844;2024-01-30T00:38:46;14.07;;;10.00;;
50789;SDS011;37287;47.554;7.844;2024-01-30T00:41:12;11.75;;;9.45;;
50789;SDS011;37287;47.554;7.844;2024-01-30T00:43:40;13.05;;;8.73;;
50789;SDS011;37287;47.554;7.844;2024-01-30T00:46:06;14.30;;;9.98;;
50789;SDS011;37287;47.554;7.844;2024-01-30T00:48:33;13.65;;;9.98;;
50789;SDS011;37287;47.554;7.844;2024-01-30T00:51:00;12.48;;;9.20;;
50789;SDS011;37287;47.554;7.844;2024-01-30T00:53:26;13.48;;;9.85;;
50789;SDS011;37287;47.554;7.844;2024-01-30T00:55:53;14.05;;;9.73;;
50789;SDS011;37287;47.554;7.844;2024-01-30T00:58:20;15.13;;;10.23;;
50789;SDS011;37287;47.554;7.844;2024-01-30T01:00:46;14.32;;;9.82;;
50789;SDS011;37287;47.554;7.844;2024-01-30T01:03:13;14.95;;;10.32;;
50789;SDS011;37287;47.554;7.844;2024-01-30T01:05:40;13.65;;;10.50;;
50789;SDS011;37287;47.554;7.844;2024-01-30T01:08:07;13.85;;;10.18;;
50789;SDS011;37287;47.554;7.844;2024-01-30T01:10:35;16.88;;;9.90;;
50789;SDS011;37287;47.554;7.844;2024-01-30T01:13:02;15.80;;;11.02;;
50789;SDS011;37287;47.554;7.844;2024-01-30T01:15:29;13.30;;;9.32;;
50789;SDS011;37287;47.554;7.844;2024-01-30T01:17:56;14.65;;;10.25;;
50789;SDS011;37287;47.554;7.844;2024-01-30T01:20:23;12.27;;;8.95;;
50789;SDS011;37287;47.554;7.844;2024-01-30T01:22:49;12.70;;;8.77;;
50789;SDS011;37287;47.554;7.844;2024-01-30T01:25:16;13.52;;;8.82;;
50789;SDS011;37287;47.554;7.844;2024-01-30T01:27:43;9.93;;;8.23;;
50789;SDS011;37287;47.554;7.844;2024-01-30T01:30:17;10.63;;;8.00;;
50789;SDS011;37287;47.554;7.844;2024-01-30T01:32:48;11.88;;;8.30;;
50789;SDS011;37287;47.554;7.844;2024-01-30T01:35:27;11.52;;;8.18;;
50789;SDS011;37287;47.554;7.844;2024-01-30T01:37:55;12.45;;;9.30;;
50789;SDS011;37287;47.554;7.844;2024-01-30T01:40:25;14.05;;;10.15;;
50789;SDS011;37287;47.554;7.844;2024-01-30T01:42:53;12.85;;;9.38;;
50789;SDS011;37287;47.554;7.844;2024-01-30T01:45:21;12.27;;;9.55;;
50789;SDS011;37287;47.554;7.844;2024-01-30T01:47:50;12.68;;;10.20;;
50789;SDS011;37287;47.554;7.844;2024-01-30T01:50:18;12.60;;;9.75;;
50789;SDS011;37287;47.554;7.844;2024-01-30T01:52:48;12.43;;;9.45;;
50789;SDS011;37287;47.554;7.844;2024-01-30T01:55:17;12.60;;;9.60;;
50789;SDS011;37287;47.554;7.844;2024-01-30T01:57:52;14.40;;;11.00;;
50789;SDS011;37287;47.554;7.844;2024-01-30T02:00:19;14.45;;;9.57;;
50789;SDS011;37287;47.554;7.844;2024-01-30T02:02:46;13.80;;;10.60;;
50789;SDS011;37287;47.554;7.844;2024-01-30T02:05:14;14.48;;;10.48;;
50789;SDS011;37287;47.554;7.844;2024-01-30T02:07:42;15.10;;;10.50;;
50789;SDS011;37287;47.554;7.844;2024-01-30T02:10:10;13.82;;;9.57;;
50789;SDS011;37287;47.554;7.844;2024-01-30T02:12:37;12.23;;;8.80;;
50789;SDS011;37287;47.554;7.844;2024-01-30T02:15:04;12.38;;;9.18;;
50789;SDS011;37287;47.554;7.844;2024-01-30T02:17:31;12.23;;;9.43;;
50789;SDS011;37287;47.554;7.844;2024-01-30T02:19:59;11.68;;;9.57;;
50789;SDS011;37287;47.554;7.844;2024-01-30T02:22:26;13.50;;;10.20;;
50789;SDS011;37287;47.554;7.844;2024-01-30T02:24:53;12.82;;;9.57;;
50789;SDS011;37287;47.554;7.844;2024-01-30T02:27:20;15.85;;;10.60;;
50789;SDS011;37287;47.554;7.844;2024-01-30T02:29:47;14.32;;;10.50;;
50789;SDS011;37287;47.554;7.844;2024-01-30T02:32:13;13.45;;;10.32;;
50789;SDS011;37287;47.554;7.844;2024-01-30T02:34:45;15.23;;;10.60;;
50789;SDS011;37287;47.554;7.844;2024-01-30T02:37:12;14.82;;;10.98;;
50789;SDS011;37287;47.554;7.844;2024-01-30T02:39:38;16.25;;;11.88;;
50789;SDS011;37287;47.554;7.844;2024-01-30T02:42:05;15.57;;;11.20;;
50789;SDS011;37287;47.554;7.844;2024-01-30T02:44:32;15.15;;;11.52;;
50789;SDS011;37287;47.554;7.844;2024-01-30T02:46:59;17.85;;;11.98;;
50789;SDS011;37287;47.554;7.844;2024-01-30T02:49:26;15.43;;;11.57;;
50789;SDS011;37287;47.554;7.844;2024-01-30T02:51:53;14.18;;;10.95;;
50789;SDS011;37287;47.554;7.844;2024-01-30T02:54:21;15.95;;;9.90;;
50789;SDS011;37287;47.554;7.844;2024-01-30T02:56:47;13.43;;;10.60;;
50789;SDS011;37287;47.554;7.844;2024-01-30T02:59:14;15.43;;;10.30;;
50789;SDS011;37287;47.554;7.844;2024-01-30T03:01:44;14.30;;;10.70;;
50789;SDS011;37287;47.554;7.844;2024-01-30T03:04:11;14.45;;;10.82;;
50789;SDS011;37287;47.554;7.844;2024-01-30T03:06:38;15.18;;;10.45;;
50789;SDS011;37287;47.554;7.844;2024-01-30T03:09:10;14.45;;;9.75;;
50789;SDS011;37287;47.554;7.844;2024-01-30T03:11:37;15.30;;;9.80;;
50789;SDS011;37287;47.554;7.844;2024-01-30T03:14:03;11.38;;;8.77;;
50789;SDS011;37287;47.554;7.844;2024-01-30T03:16:31;12.00;;;8.80;;
50789;SDS011;37287;47.554;7.844;2024-01-30T03:18:57;14.20;;;9.13;;
50789;SDS011;37287;47.554;7.844;2024-01-30T03:21:24;11.90;;;8.52;;
50789;SDS011;37287;47.554;7.844;2024-01-30T03:23:51;13.63;;;10.45;;
50789;SDS011;37287;47.554;7.844;2024-01-30T03:26:17;15.38;;;11.55;;
50789;SDS011;37287;47.554;7.844;2024-01-30T03:28:44;16.33;;;12.30;;
50789;SDS011;37287;47.554;7.844;2024-01-30T03:31:13;15.93;;;11.07;;
50789;SDS011;37287;47.554;7.844;2024-01-30T03:33:41;18.13;;;13.85;;
50789;SDS011;37287;47.554;7.844;2024-01-30T03:36:08;18.05;;;12.55;;
50789;SDS011;37287;47.554;7.844;2024-01-30T03:38:35;17.58;;;12.80;;
50789;SDS011;37287;47.554;7.844;2024-01-30T03:41:02;19.00;;;13.55;;
50789;SDS011;37287;47.554;7.844;2024-01-30T03:43:29;16.98;;;12.73;;
50789;SDS011;37287;47.554;7.844;2024-01-30T03:45:55;17.50;;;13.25;;
50789;SDS011;37287;47.554;7.844;2024-01-30T03:48:22;19.58;;;14.02;;
50789;SDS011;37287;47.554;7.844;2024-01-30T03:50:49;20.00;;;13.38;;
50789;SDS011;37287;47.554;7.844;2024-01-30T03:53:16;20.98;;;13.45;;
50789;SDS011;37287;47.554;7.844;2024-01-30T03:55:43;21.30;;;13.75;;
50789;SDS011;37287;47.554;7.844;2024-01-30T03:58:10;19.77;;;14.40;;
50789;SDS011;37287;47.554;7.844;2024-01-30T04:00:37;21.00;;;13.32;;
50789;SDS011;37287;47.554;7.844;2024-01-30T04:03:03;20.80;;;14.70;;
50789;SDS011;37287;47.554;7.844;2024-01-30T04:05:30;19.50;;;14.85;;
50789;SDS011;37287;47.554;7.844;2024-01-30T04:07:57;20.85;;;15.07;;
50789;SDS011;37287;47.554;7.844;2024-01-30T04:10:24;29.02;;;16.38;;
50789;SDS011;37287;47.554;7.844;2024-01-30T04:12:51;22.25;;;16.48;;
50789;SDS011;37287;47.554;7.844;2024-01-30T04:15:18;21.80;;;14.90;;
50789;SDS011;37287;47.554;7.844;2024-01-30T04:17:45;21.85;;;15.48;;
50789;SDS011;37287;47.554;7.844;2024-01-30T04:20:13;22.30;;;16.38;;
50789;SDS011;37287;47.554;7.844;2024-01-30T04:22:42;21.15;;;14.65;;
50789;SDS011;37287;47.554;7.844;2024-01-30T04:25:12;19.83;;;14.65;;
50789;SDS011;37287;47.554;7.844;2024-01-30T04:27:39;20.35;;;13.77;;
50789;SDS011;37287;47.554;7.844;2024-01-30T04:30:06;18.20;;;13.00;;
50789;SDS011;37287;47.554;7.844;2024-01-30T04:32:34;18.52;;;12.30;;
50789;SDS011;37287;47.554;7.844;2024-01-30T04:35:01;17.23;;;13.27;;
50789;SDS011;37287;47.554;7.844;2024-01-30T04:37:33;22.80;;;13.23;;
50789;SDS011;37287;47.554;7.844;2024-01-30T04:39:59;18.88;;;12.57;;
50789;SDS011;37287;47.554;7.844;2024-01-30T04:42:26;17.85;;;12.00;;
50789;SDS011;37287;47.554;7.844;2024-01-30T04:44:52;18.52;;;11.70;;
50789;SDS011;37287;47.554;7.844;2024-01-30T04:47:19;14.85;;;10.65;;
50789;SDS011;37287;47.554;7.844;2024-01-30T04:49:46;15.85;;;10.68;;
50789;SDS011;37287;47.554;7.844;2024-01-30T04:52:13;14.38;;;10.55;;
50789;SDS011;37287;47.554;7.844;2024-01-30T04:54:39;13.27;;;10.30;;
50789;SDS011;37287;47.554;7.844;2024-01-30T04:57:06;16.05;;;10.70;;
50789;SDS011;37287;47.554;7.844;2024-01-30T04:59:35;13.23;;;9.23;;
50789;SDS011;37287;47.554;7.844;2024-01-30T05:02:03;13.38;;;8.73;;
50789;SDS011;37287;47.554;7.844;2024-01-30T05:04:29;11.63;;;9.27;;
50789;SDS011;37287;47.554;7.844;2024-01-30T05:06:56;19.65;;;10.73;;
50789;SDS011;37287;47.554;7.844;2024-01-30T05:09:23;47.67;;;10.00;;
50789;SDS011;37287;47.554;7.844;2024-01-30T05:11:50;30.63;;;8.63;;
50789;SDS011;37287;47.554;7.844;2024-01-30T05:14:16;17.60;;;9.35;;
50789;SDS011;37287;47.554;7.844;2024-01-30T05:16:44;37.15;;;9.27;;
50789;SDS011;37287;47.554;7.844;2024-01-30T05:19:13;56.10;;;11.98;;
50789;SDS011;37287;47.554;7.844;2024-01-30T05:21:40;77.43;;;12.52;;
50789;SDS011;37287;47.554;7.844;2024-01-30T05:24:07;185.45;;;14.35;;
50789;SDS011;37287;47.554;7.844;2024-01-30T05:26:36;33.83;;;9.55;;
50789;SDS011;37287;47.554;7.844;2024-01-30T05:29:03;162.38;;;14.93;;
50789;SDS011;37287;47.554;7.844;2024-01-30T05:31:30;205.38;;;18.15;;
50789;SDS011;37287;47.554;7.844;2024-01-30T05:33:57;372.33;;;20.48;;
50789;SDS011;37287;47.554;7.844;2024-01-30T05:36:24;272.63;;;19.00;;
50789;SDS011;37287;47.554;7.844;2024-01-30T05:38:50;144.60;;;15.38;;
50789;SDS011;37287;47.554;7.844;2024-01-30T05:41:17;196.00;;;15.85;;
50789;SDS011;37287;47.554;7.844;2024-01-30T05:43:44;215.23;;;17.05;;
50789;SDS011;37287;47.554;7.844;2024-01-30T05:46:11;167.30;;;16.80;;
50789;SDS011;37287;47.554;7.844;2024-01-30T05:48:38;154.25;;;17.30;;
50789;SDS011;37287;47.554;7.844;2024-01-30T05:51:04;97.05;;;16.63;;
50789;SDS011;37287;47.554;7.844;2024-01-30T05:53:34;63.05;;;15.23;;
50789;SDS011;37287;47.554;7.844;2024-01-30T05:56:01;98.32;;;15.63;;
50789;SDS011;37287;47.554;7.844;2024-01-30T05:58:28;20.50;;;11.98;;
50789;SDS011;37287;47.554;7.844;2024-01-30T06:00:56;122.60;;;14.40;;
50789;SDS011;37287;47.554;7.844;2024-01-30T06:03:24;76.03;;;14.50;;
50789;SDS011;37287;47.554;7.844;2024-01-30T06:05:51;140.55;;;14.90;;
50789;SDS011;37287;47.554;7.844;2024-01-30T06:08:18;16.65;;;10.35;;
50789;SDS011;37287;47.554;7.844;2024-01-30T06:10:44;14.73;;;10.05;;
50789;SDS011;37287;47.554;7.844;2024-01-30T06:13:11;17.63;;;9.73;;
50789;SDS011;37287;47.554;7.844;2024-01-30T06:15:38;12.68;;;9.90;;
50789;SDS011;37287;47.554;7.844;2024-01-30T06:18:04;14.95;;;10.07;;
50789;SDS011;37287;47.554;7.844;2024-01-30T06:20:31;27.15;;;9.57;;
50789;SDS011;37287;47.554;7.844;2024-01-30T06:22:58;13.45;;;9.68;;
50789;SDS011;37287;47.554;7.844;2024-01-30T06:25:25;13.75;;;8.95;;
50789;SDS011;37287;47.554;7.844;2024-01-30T06:27:52;50.38;;;12.10;;
50789;SDS011;37287;47.554;7.844;2024-01-30T06:30:18;58.17;;;9.27;;
50789;SDS011;37287;47.554;7.844;2024-01-30T06:32:45;114.63;;;11.40;;
50789;SDS011;37287;47.554;7.844;2024-01-30T06:35:12;115.32;;;11.38;;
50789;SDS011;37287;47.554;7.844;2024-01-30T06:37:39;88.30;;;10.95;;
50789;SDS011;37287;47.554;7.844;2024-01-30T06:40:05;178.27;;;13.55;;
50789;SDS011;37287;47.554;7.844;2024-01-30T06:42:33;87.93;;;12.88;;
50789;SDS011;37287;47.554;7.844;2024-01-30T06:44:59;107.75;;;13.80;;
50789;SDS011;37287;47.554;7.844;2024-01-30T06:47:26;277.80;;;19.02;;
50789;SDS011;37287;47.554;7.844;2024-01-30T06:49:53;226.88;;;17.13;;
50789;SDS011;37287;47.554;7.844;2024-01-30T06:52:19;32.35;;;10.98;;
50789;SDS011;37287;47.554;7.844;2024-01-30T06:54:46;290.20;;;16.75;;
50789;SDS011;37287;47.554;7.844;2024-01-30T06:57:13;95.57;;;12.18;;
50789;SDS011;37287;47.554;7.844;2024-01-30T06:59:40;141.77;;;13.43;;
50789;SDS011;37287;47.554;7.844;2024-01-30T07:02:10;204.15;;;15.15;;
50789;SDS011;37287;47.554;7.844;2024-01-30T07:04:38;215.27;;;15.23;;
50789;SDS011;37287;47.554;7.844;2024-01-30T07:07:12;486.63;;;24.70;;
50789;SDS011;37287;47.554;7.844;2024-01-30T07:09:39;64.32;;;11.88;;
50789;SDS011;37287;47.554;7.844;2024-01-30T07:12:07;212.77;;;16.50;;
50789;SDS011;37287;47.554;7.844;2024-01-30T07:14:34;37.33;;;11.18;;
50789;SDS011;37287;47.554;7.844;2024-01-30T07:17:01;85.40;;;12.73;;
50789;SDS011;37287;47.554;7.844;2024-01-30T07:19:28;196.77;;;16.13;;
50789;SDS011;37287;47.554;7.844;2024-01-30T07:21:55;143.70;;;17.20;;
50789;SDS011;37287;47.554;7.844;2024-01-30T07:24:21;115.32;;;15.57;;
50789;SDS011;37287;47.554;7.844;2024-01-30T07:26:48;45.20;;;13.35;;
50789;SDS011;37287;47.554;7.844;2024-01-30T07:29:14;39.47;;;11.52;;
50789;SDS011;37287;47.554;7.844;2024-01-30T07:31:41;167.70;;;17.30;;
50789;SDS011;37287;47.554;7.844;2024-01-30T07:34:08;97.93;;;14.05;;
50789;SDS011;37287;47.554;7.844;2024-01-30T07:36:35;34.13;;;12.20;;
50789;SDS011;37287;47.554;7.844;2024-01-30T07:39:02;17.77;;;11.55;;
50789;SDS011;37287;47.554;7.844;2024-01-30T07:41:29;20.70;;;12.68;;
50789;SDS011;37287;47.554;7.844;2024-01-30T07:43:55;17.08;;;11.95;;
50789;SDS011;37287;47.554;7.844;2024-01-30T07:46:22;25.17;;;10.68;;
50789;SDS011;37287;47.554;7.844;2024-01-30T07:48:49;76.40;;;14.43;;
50789;SDS011;37287;47.554;7.844;2024-01-30T07:51:19;55.78;;;15.30;;
50789;SDS011;37287;47.554;7.844;2024-01-30T07:53:52;65.05;;;14.90;;
50789;SDS011;37287;47.554;7.844;2024-01-30T07:56:19;42.53;;;13.57;;
50789;SDS011;37287;47.554;7.844;2024-01-30T07:58:45;47.03;;;13.30;;
50789;SDS011;37287;47.554;7.844;2024-01-30T08:01:12;50.58;;;13.77;;
50789;SDS011;37287;47.554;7.844;2024-01-30T08:03:41;117.45;;;16.95;;
50789;SDS011;37287;47.554;7.844;2024-01-30T08:06:08;20.85;;;12.85;;
50789;SDS011;37287;47.554;7.844;2024-01-30T08:08:35;22.50;;;11.63;;
50789;SDS011;37287;47.554;7.844;2024-01-30T08:11:04;36.88;;;12.23;;
50789;SDS011;37287;47.554;7.844;2024-01-30T08:13:30;21.55;;;12.25;;
50789;SDS011;37287;47.554;7.844;2024-01-30T08:15:57;19.73;;;11.02;;
50789;SDS011;37287;47.554;7.844;2024-01-30T08:18:24;19.63;;;11.93;;
50789;SDS011;37287;47.554;7.844;2024-01-30T08:20:51;16.95;;;11.02;;
50789;SDS011;37287;47.554;7.844;2024-01-30T08:23:17;25.58;;;11.48;;
50789;SDS011;37287;47.554;7.844;2024-01-30T08:25:44;19.95;;;12.23;;
50789;SDS011;37287;47.554;7.844;2024-01-30T08:28:11;22.65;;;14.07;;
50789;SDS011;37287;47.554;7.844;2024-01-30T08:30:38;19.20;;;12.35;;
50789;SDS011;37287;47.554;7.844;2024-01-30T08:33:06;18.13;;;12.38;;
50789;SDS011;37287;47.554;7.844;2024-01-30T08:35:33;17.20;;;12.35;;
50789;SDS011;37287;47.554;7.844;2024-01-30T08:38:00;19.15;;;12.05;;
50789;SDS011;37287;47.554;7.844;2024-01-30T08:40:27;24.60;;;15.25;;
50789;SDS011;37287;47.554;7.844;2024-01-30T08:42:55;25.67;;;15.52;;
50789;SDS011;37287;47.554;7.844;2024-01-30T08:45:22;24.17;;;14.30;;
50789;SDS011;37287;47.554;7.844;2024-01-30T08:47:48;21.02;;;13.02;;
50789;SDS011;37287;47.554;7.844;2024-01-30T08:50:15;26.52;;;15.80;;
50789;SDS011;37287;47.554;7.844;2024-01-30T08:52:42;25.35;;;16.38;;
50789;SDS011;37287;47.554;7.844;2024-01-30T08:55:12;25.17;;;17.10;;
50789;SDS011;37287;47.554;7.844;2024-01-30T08:57:39;30.23;;;18.45;;
50789;SDS011;37287;47.554;7.844;2024-01-30T09:00:06;28.25;;;18.13;;
50789;SDS011;37287;47.554;7.844;2024-01-30T09:02:35;26.60;;;17.25;;
50789;SDS011;37287;47.554;7.844;2024-01-30T09:05:02;22.33;;;15.52;;
50789;SDS011;37287;47.554;7.844;2024-01-30T09:07:29;24.40;;;15.63;;
50789;SDS011;37287;47.554;7.844;2024-01-30T09:09:56;22.98;;;14.88;;
50789;SDS011;37287;47.554;7.844;2024-01-30T09:12:23;24.77;;;15.88;;
50789;SDS011;37287;47.554;7.844;2024-01-30T09:14:50;30.13;;;18.02;;
50789;SDS011;37287;47.554;7.844;2024-01-30T09:17:16;23.25;;;16.27;;
50789;SDS011;37287;47.554;7.844;2024-01-30T09:19:43;23.58;;;15.50;;
50789;SDS011;37287;47.554;7.844;2024-01-30T09:22:10;20.08;;;13.75;;
50789;SDS011;37287;47.554;7.844;2024-01-30T09:24:36;18.83;;;12.55;;
50789;SDS011;37287;47.554;7.844;2024-01-30T09:27:03;20.00;;;14.80;;
50789;SDS011;37287;47.554;7.844;2024-01-30T09:29:30;19.08;;;14.02;;
50789;SDS011;37287;47.554;7.844;2024-01-30T09:31:56;18.48;;;14.00;;
50789;SDS011;37287;47.554;7.844;2024-01-30T09:34:24;20.17;;;13.57;;
50789;SDS011;37287;47.554;7.844;2024-01-30T09:36:51;20.10;;;13.57;;
50789;SDS011;37287;47.554;7.844;2024-01-30T09:39:17;19.77;;;12.82;;
50789;SDS011;37287;47.554;7.844;2024-01-30T09:44:57;17.83;;;12.18;;
50789;SDS011;37287;47.554;7.844;2024-01-30T09:47:24;19.65;;;12.40;;
50789;SDS011;37287;47.554;7.844;2024-01-30T09:49:52;18.58;;;13.90;;
50789;SDS011;37287;47.554;7.844;2024-01-30T09:52:19;17.77;;;12.38;;
50789;SDS011;37287;47.554;7.844;2024-01-30T09:54:46;18.90;;;13.68;;
50789;SDS011;37287;47.554;7.844;2024-01-30T09:57:15;22.25;;;15.48;;
50789;SDS011;37287;47.554;7.844;2024-01-30T09:59:42;18.25;;;12.80;;
50789;SDS011;37287;47.554;7.844;2024-01-30T10:02:10;19.90;;;14.20;;
50789;SDS011;37287;47.554;7.844;2024-01-30T10:04:37;21.92;;;14.77;;
50789;SDS011;37287;47.554;7.844;2024-01-30T10:07:04;19.48;;;13.38;;
50789;SDS011;37287;47.554;7.844;2024-01-30T10:09:34;17.40;;;13.13;;
50789;SDS011;37287;47.554;7.844;2024-01-30T10:12:01;16.75;;;13.10;;
50789;SDS011;37287;47.554;7.844;2024-01-30T10:14:30;16.05;;;11.63;;
50789;SDS011;37287;47.554;7.844;2024-01-30T10:16:57;17.52;;;12.95;;
50789;SDS011;37287;47.554;7.844;2024-01-30T10:19:24;15.02;;;11.30;;
50789;SDS011;37287;47.554;7.844;2024-01-30T10:21:51;16.25;;;12.23;;
50789;SDS011;37287;47.554;7.844;2024-01-30T10:24:18;18.95;;;12.20;;
50789;SDS011;37287;47.554;7.844;2024-01-30T10:26:44;17.30;;;11.25;;
50789;SDS011;37287;47.554;7.844;2024-01-30T10:29:11;17.83;;;12.43;;
50789;SDS011;37287;47.554;7.844;2024-01-30T10:31:38;17.15;;;11.70;;
50789;SDS011;37287;47.554;7.844;2024-01-30T10:34:05;16.65;;;12.25;;
50789;SDS011;37287;47.554;7.844;2024-01-30T10:36:45;15.60;;;11.65;;
50789;SDS011;37287;47.554;7.844;2024-01-30T10:39:17;16.20;;;10.95;;
50789;SDS011;37287;47.554;7.844;2024-01-30T10:41:44;16.88;;;11.18;;
50789;SDS011;37287;47.554;7.844;2024-01-30T10:44:16;15.15;;;11.18;;
50789;SDS011;37287;47.554;7.844;2024-01-30T10:46:46;14.63;;;11.75;;
50789;SDS011;37287;47.554;7.844;2024-01-30T10:49:22;13.50;;;10.43;;
50789;SDS011;37287;47.554;7.844;2024-01-30T10:51:51;12.25;;;9.75;;
50789;SDS011;37287;47.554;7.844;2024-01-30T10:54:19;12.07;;;9.85;;
50789;SDS011;37287;47.554;7.844;2024-01-30T10:56:46;13.82;;;9.85;;
50789;SDS011;37287;47.554;7.844;2024-01-30T10:59:15;12.43;;;9.63;;
50789;SDS011;37287;47.554;7.844;2024-01-30T11:01:41;13.05;;;9.32;;
50789;SDS011;37287;47.554;7.844;2024-01-30T11:04:09;13.48;;;10.65;;
50789;SDS011;37287;47.554;7.844;2024-01-30T11:06:42;14.48;;;9.60;;
50789;SDS011;37287;47.554;7.844;2024-01-30T11:09:12;14.25;;;11.52;;
50789;SDS011;37287;47.554;7.844;2024-01-30T11:11:49;14.25;;;11.05;;
50789;SDS011;37287;47.554;7.844;2024-01-30T11:14:22;15.88;;;11.52;;
50789;SDS011;37287;47.554;7.844;2024-01-30T11:16:49;12.77;;;10.63;;
50789;SDS011;37287;47.554;7.844;2024-01-30T11:19:21;17.52;;;10.50;;
50789;SDS011;37287;47.554;7.844;2024-01-30T11:21:50;15.25;;;11.27;;
50789;SDS011;37287;47.554;7.844;2024-01-30T11:24:24;13.90;;;10.82;;
50789;SDS011;37287;47.554;7.844;2024-01-30T11:27:00;15.65;;;10.95;;
50789;SDS011;37287;47.554;7.844;2024-01-30T11:29:30;14.52;;;11.23;;
50789;SDS011;37287;47.554;7.844;2024-01-30T11:31:57;12.38;;;10.02;;
50789;SDS011;37287;47.554;7.844;2024-01-30T11:34:25;14.88;;;11.18;;
50789;SDS011;37287;47.554;7.844;2024-01-30T11:36:53;12.27;;;10.25;;
50789;SDS011;37287;47.554;7.844;2024-01-30T11:39:25;13.98;;;10.55;;
50789;SDS011;37287;47.554;7.844;2024-01-30T11:41:55;12.90;;;10.30;;
50789;SDS011;37287;47.554;7.844;2024-01-30T11:44:22;12.55;;;9.85;;
50789;SDS011;37287;47.554;7.844;2024-01-30T11:46:50;13.32;;;9.93;;
50789;SDS011;37287;47.554;7.844;2024-01-30T11:49:17;12.45;;;9.75;;
50789;SDS011;37287;47.554;7.844;2024-01-30T11:51:47;15.02;;;11.52;;
50789;SDS011;37287;47.554;7.844;2024-01-30T11:54:18;14.13;;;9.95;;
50789;SDS011;37287;47.554;7.844;2024-01-30T11:56:45;13.77;;;9.98;;
50789;SDS011;37287;47.554;7.844;2024-01-30T11:59:11;15.55;;;11.48;;
50789;SDS011;37287;47.554;7.844;2024-01-30T12:01:38;13.27;;;9.70;;
50789;SDS011;37287;47.554;7.844;2024-01-30T12:04:05;15.40;;;12.25;;
50789;SDS011;37287;47.554;7.844;2024-01-30T12:06:36;14.43;;;11.68;;
50789;SDS011;37287;47.554;7.844;2024-01-30T12:09:04;15.80;;;12.75;;
50789;SDS011;37287;47.554;7.844;2024-01-30T12:11:30;14.85;;;12.02;;
50789;SDS011;37287;47.554;7.844;2024-01-30T12:13:57;15.20;;;11.55;;
50789;SDS011;37287;47.554;7.844;2024-01-30T12:16:24;14.13;;;11.02;;
50789;SDS011;37287;47.554;7.844;2024-01-30T12:18:59;13.98;;;10.90;;
50789;SDS011;37287;47.554;7.844;2024-01-30T12:21:27;13.57;;;10.23;;
50789;SDS011;37287;47.554;7.844;2024-01-30T12:23:56;11.77;;;10.15;;
50789;SDS011;37287;47.554;7.844;2024-01-30T12:26:24;14.60;;;11.60;;
50789;SDS011;37287;47.554;7.844;2024-01-30T12:28:55;12.00;;;9.90;;
50789;SDS011;37287;47.554;7.844;2024-01-30T12:31:25;12.10;;;10.65;;
50789;SDS011;37287;47.554;7.844;2024-01-30T12:33:53;14.07;;;11.18;;
50789;SDS011;37287;47.554;7.844;2024-01-30T12:36:21;15.70;;;11.63;;
50789;SDS011;37287;47.554;7.844;2024-01-30T12:38:49;13.13;;;10.85;;
50789;SDS011;37287;47.554;7.844;2024-01-30T12:41:16;13.18;;;10.27;;
50789;SDS011;37287;47.554;7.844;2024-01-30T12:43:43;11.13;;;9.45;;
50789;SDS011;37287;47.554;7.844;2024-01-30T12:46:10;14.32;;;11.50;;
50789;SDS011;37287;47.554;7.844;2024-01-30T12:48:37;13.55;;;10.32;;
50789;SDS011;37287;47.554;7.844;2024-01-30T12:51:04;12.68;;;10.20;;
50789;SDS011;37287;47.554;7.844;2024-01-30T12:53:31;13.57;;;10.27;;
50789;SDS011;37287;47.554;7.844;2024-01-30T12:55:57;13.30;;;10.63;;
50789;SDS011;37287;47.554;7.844;2024-01-30T12:58:24;13.10;;;10.23;;
50789;SDS011;37287;47.554;7.844;2024-01-30T13:00:51;15.38;;;11.18;;
50789;SDS011;37287;47.554;7.844;2024-01-30T13:03:20;13.38;;;10.52;;
50789;SDS011;37287;47.554;7.844;2024-01-30T13:05:47;13.20;;;10.25;;
50789;SDS011;37287;47.554;7.844;2024-01-30T13:08:14;12.52;;;10.05;;
50789;SDS011;37287;47.554;7.844;2024-01-30T13:10:40;12.55;;;10.18;;
50789;SDS011;37287;47.554;7.844;2024-01-30T13:13:07;14.43;;;10.63;;
50789;SDS011;37287;47.554;7.844;2024-01-30T13:15:44;12.65;;;10.43;;
50789;SDS011;37287;47.554;7.844;2024-01-30T13:18:11;13.13;;;10.27;;
50789;SDS011;37287;47.554;7.844;2024-01-30T13:20:38;14.30;;;10.15;;
50789;SDS011;37287;47.554;7.844;2024-01-30T13:23:04;12.60;;;10.30;;
50789;SDS011;37287;47.554;7.844;2024-01-30T13:25:31;17.30;;;9.77;;
50789;SDS011;37287;47.554;7.844;2024-01-30T13:27:58;12.68;;;9.93;;
50789;SDS011;37287;47.554;7.844;2024-01-30T13:30:24;14.30;;;9.40;;
50789;SDS011;37287;47.554;7.844;2024-01-30T13:32:51;11.73;;;9.60;;
50789;SDS011;37287;47.554;7.844;2024-01-30T13:35:18;11.73;;;9.15;;
50789;SDS011;37287;47.554;7.844;2024-01-30T13:37:45;10.10;;;8.68;;
50789;SDS011;37287;47.554;7.844;2024-01-30T13:40:14;9.77;;;7.90;;
50789;SDS011;37287;47.554;7.844;2024-01-30T13:42:43;12.95;;;8.15;;
50789;SDS011;37287;47.554;7.844;2024-01-30T13:45:09;11.38;;;8.23;;
50789;SDS011;37287;47.554;7.844;2024-01-30T13:47:37;9.18;;;7.75;;
50789;SDS011;37287;47.554;7.844;2024-01-30T13:50:04;13.65;;;8.75;;
50789;SDS011;37287;47.554;7.844;2024-01-30T13:52:32;10.57;;;8.23;;
50789;SDS011;37287;47.554;7.844;2024-01-30T13:55:09;10.30;;;9.07;;
50789;SDS011;37287;47.554;7.844;2024-01-30T13:57:37;9.90;;;8.52;;
50789;SDS011;37287;47.554;7.844;2024-01-30T14:00:03;9.57;;;8.45;;
50789;SDS011;37287;47.554;7.844;2024-01-30T14:02:33;10.68;;;9.15;;
50789;SDS011;37287;47.554;7.844;2024-01-30T14:05:00;10.32;;;8.45;;
50789;SDS011;37287;47.554;7.844;2024-01-30T14:07:27;11.75;;;9.35;;
50789;SDS011;37287;47.554;7.844;2024-01-30T14:09:54;12.90;;;9.13;;
50789;SDS011;37287;47.554;7.844;2024-01-30T14:12:20;12.35;;;8.88;;
50789;SDS011;37287;47.554;7.844;2024-01-30T14:14:47;12.95;;;9.18;;
50789;SDS011;37287;47.554;7.844;2024-01-30T14:17:14;10.15;;;8.75;;
50789;SDS011;37287;47.554;7.844;2024-01-30T14:19:40;12.07;;;9.05;;
50789;SDS011;37287;47.554;7.844;2024-01-30T14:22:07;10.60;;;8.65;;
50789;SDS011;37287;47.554;7.844;2024-01-30T14:24:34;10.82;;;8.10;;
50789;SDS011;37287;47.554;7.844;2024-01-30T14:27:01;10.88;;;8.85;;
50789;SDS011;37287;47.554;7.844;2024-01-30T14:29:27;11.05;;;8.52;;